METAR Data
IDs: Format: Raw Decoded Include TAF

Data at: 2024 UTC 14 Dec 2018

KBAZ 141951Z 33024G35KT 10SM BKN044 12/02 A3006 RMK AO2 PK WND 34035/1944 SLP177 T01170022
KBAZ 141851Z 34022G29KT 10SM BKN039 11/01 A3007 RMK AO2 PK WND 34032/1757 SLP180 T01110011
KBAZ 141751Z 33022G31KT 10SM OVC033 11/02 A3008 RMK AO2 PK WND 34031/1749 SLP184 T01060017 10111 20067 50007
KBAZ 141734Z 33019G28KT 10SM OVC031 11/02 A3008 RMK AO2 PK WND 32030/1656 T01060022
KBAZ 141651Z 33022G31KT 10SM BKN026 11/02 A3009 RMK AO2 PK WND 32032/1641 SLP188 T01060022
KBAZ 141551Z 34020G25KT 10SM OVC025 08/02 A3007 RMK AO2 PK WND 33026/1533 SLP182 T00830017
KBAZ 141451Z 33016G26KT 10SM OVC026 07/01 A3006 RMK AO2 PK WND 34029/1403 SLP178 T00720011 53021
KBAZ 141351Z 33016G27KT 10SM OVC026 07/01 A3004 RMK AO2 PK WND 33029/1301 SLP171 T00670011
KBAZ 141251Z 32018G29KT 10SM OVC027 07/01 A3001 RMK AO2 PK WND 32031/1241 SLP162 T00670006
KBAZ 141151Z AUTO 33022G32KT 10SM OVC029 07/01 A3000 RMK AO2 PK WND 31033/1103 SLP157 T00720006 10094 20072 53017
KBAZ 141141Z AUTO 32021G29KT 10SM OVC029 07/01 A2999 RMK AO2 PK WND 31033/1103 T00720006
KBAZ 141051Z AUTO 33022G31KT 10SM OVC030 07/01 A2997 RMK AO2 PK WND 31035/1039 SLP147 T00720006
KBAZ 141006Z AUTO 32025G33KT 10SM OVC031 08/01 A2996 RMK AO2 PK WND 32033/1004 T00780006
KBAZ 140951Z AUTO 33022G32KT 10SM OVC029 08/01 A2996 RMK AO2 PK WND 31032/0947 SLP142 T00780011
KBAZ 140851Z AUTO 31022G28KT 10SM SCT029 OVC036 08/02 A2995 RMK AO2 PK WND 32033/0835 SLP138 T00780017 50008
KBAZ 140830Z AUTO 32024G29KT 10SM SCT028 OVC036 08/02 A2995 RMK AO2 PK WND 33033/0803 T00780017
KBAZ 140805Z AUTO 33024G33KT 10SM BKN029 OVC035 08/02 A2995 RMK AO2 PK WND 33033/0803 T00780017
KBAZ 140751Z AUTO 31023G28KT 10SM OVC031 08/02 A2995 RMK AO2 PK WND 32032/0723 SLP137 T00780017
KBAZ 140651Z AUTO 32016G27KT 10SM BKN035 OVC041 08/02 A2993 RMK AO2 PK WND 31034/0629 SLP133 T00830017
KBAZ 140551Z AUTO 31019G29KT 10SM OVC036 09/02 A2992 RMK AO2 PK WND 33032/0524 SLP128 T00940017 10111 20089 402170089 50002
KBAZ 140451Z AUTO 31019G30KT 10SM OVC036 09/02 A2992 RMK AO2 PK WND 31030/0427 SLP129 T00890017
KBAZ 140351Z AUTO 30020G28KT 10SM OVC034 09/02 A2992 RMK AO2 PK WND 31032/0303 SLP130 T00940017
KBAZ 140251Z AUTO 31023G29KT 10SM OVC038 09/02 A2991 RMK AO2 PK WND 29033/0211 SLP127 T00940017 51016
KBAZ 140151Z AUTO 30023G31KT 10SM OVC041 10/02 A2990 RMK AO2 PK WND 31035/0055 SLP123 T01000017
KBAZ 140051Z 30013G24KT 10SM SCT047 BKN055 11/02 A2989 RMK AO2 PK WND 31032/0004 SLP120 T01060017
KBAZ 132351Z 30016G25KT 10SM OVC045 11/02 A2987 RMK AO2 PK WND 30034/2252 SLP110 T01110017 10217 20111 53039
KBAZ 132251Z 30026G33KT 10SM CLR 13/02 A2982 RMK AO2 PK WND 28036/2233 SLP095 T01330022
KBAZ 132151Z 30021G29KT 10SM CLR 19/M01 A2976 RMK AO2 PK WND 29029/2147 SLP073 T01891006
KBAZ 132051Z 28021G31KT 10SM CLR 20/M02 A2975 RMK AO2 PK WND 28032/2011 SLP068 T02001022 55002
KBAZ 131951Z 29019G26KT 10SM CLR 21/00 A2975 RMK AO2 PK WND 31029/1852 SLP068 T02060000
KBAZ 131851Z 30015G23KT 10SM CLR 21/04 A2975 RMK AO2 PK WND 31030/1823 SLP069 T02110039
KBAZ 131751Z 29018G27KT 10SM CLR 22/07 A2975 RMK AO2 PK WND 30028/1722 SLP070 T02170072 10217 20122 58002
KBAZ 131711Z 29018G25KT 10SM CLR 22/08 A2976 RMK AO2 T02170083
KBAZ 131651Z 26010KT 10SM CLR 21/12 A2976 RMK AO2 SLP072 T02060122
KBAZ 131551Z 24011KT 10SM CLR 18/13 A2976 RMK AO2 SLP074 T01780133
KBAZ 131451Z 24007KT 6SM BR CLR 14/13 A2976 RMK AO2 SLP075 T01440133 53016
KBAZ 131351Z 23007KT 3SM BR CLR 13/13 A2974 RMK AO2 SLP068 T01330128
KBAZ 131323Z 24006KT 2SM BR CLR 12/12 A2973 RMK AO2 T01220122
KBAZ 131251Z 23005KT 4SM BR SCT006 12/12 A2973 RMK AO2 SLP064 T01220117
KBAZ 131240Z AUTO 21004KT 1/4SM FG VV006 12/12 A2972 RMK AO2 T01220117
KBAZ 131237Z AUTO 22003KT 1/2SM FG VV005 12/12 A2972 RMK AO2 T01220117
KBAZ 131209Z AUTO 24006KT 1/2SM FG VV004 13/12 A2971 RMK AO2 T01280122
KBAZ 131202Z AUTO 23005KT 1SM BR VV003 13/13 A2971 RMK AO2 T01330133
KBAZ 131200Z AUTO 22005KT 1 1/2SM BR BKN002 14/13 A2970 RMK AO2 T01390133
KBAZ 131151Z AUTO 27007KT 2 1/2SM BR BKN002 14/14 A2971 RMK AO2 SLP057 T01440139 10156 20133 55010
KBAZ 131127Z AUTO 23008KT 2SM BR OVC002 14/14 A2970 RMK AO2 T01440139
KBAZ 131120Z AUTO 23008KT 1 1/2SM BR OVC002 15/14 A2970 RMK AO2 T01500144
KBAZ 131111Z AUTO 24009KT 1SM BR OVC002 15/14 A2971 RMK AO2 T01500144
KBAZ 131057Z AUTO 26010KT 1 1/4SM BR OVC002 15/14 A2970 RMK AO2 T01500144
KBAZ 131051Z AUTO 26008KT 1 3/4SM BR OVC002 15/14 A2971 RMK AO2 SLP055 T01500144
KBAZ 131041Z AUTO 26007KT 1 3/4SM BR OVC002 15/14 A2971 RMK AO2 T01500144
KBAZ 131035Z AUTO 26008KT 1 1/4SM BR OVC002 15/15 A2972 RMK AO2 T01500150
KBAZ 131023Z AUTO 26009KT 1/2SM FG VV002 16/15 A2972 RMK AO2 T01560150
KBAZ 130951Z AUTO 23006KT 1/4SM FG VV002 16/15 A2972 RMK AO2 SLP060 T01560150
KBAZ 130924Z AUTO 27005KT 1/4SM FG VV002 16/14 A2973 RMK AO2 T01560144
KBAZ 130851Z AUTO 27004KT 3/4SM BR OVC002 15/14 A2974 RMK AO2 SLP067 T01500144 56021
KBAZ 130839Z AUTO 28003KT 1SM BR OVC002 15/14 A2975 RMK AO2 T01500144
KBAZ 130833Z AUTO 00000KT 1 1/2SM BR OVC002 15/14 A2975 RMK AO2 T01500144